sensor_id;sensor_type;location;lat;lon;timestamp;P1;durP1;ratioP1;P2;durP2;ratioP2
14768;SDS011;7476;49.404;11.152;2023-03-17T00:01:17;5.90;;;4.27;;
14768;SDS011;7476;49.404;11.152;2023-03-17T00:03:44;5.03;;;3.50;;
14768;SDS011;7476;49.404;11.152;2023-03-17T00:06:13;6.07;;;3.80;;
14768;SDS011;7476;49.404;11.152;2023-03-17T00:08:42;6.57;;;4.10;;
14768;SDS011;7476;49.404;11.152;2023-03-17T00:11:10;6.50;;;3.87;;
14768;SDS011;7476;49.404;11.152;2023-03-17T00:13:39;6.77;;;4.30;;
14768;SDS011;7476;49.404;11.152;2023-03-17T00:16:09;6.37;;;4.27;;
14768;SDS011;7476;49.404;11.152;2023-03-17T00:18:40;4.00;;;3.57;;
14768;SDS011;7476;49.404;11.152;2023-03-17T00:21:09;7.17;;;3.97;;
14768;SDS011;7476;49.404;11.152;2023-03-17T00:23:37;6.60;;;3.50;;
14768;SDS011;7476;49.404;11.152;2023-03-17T00:26:05;4.07;;;3.43;;
14768;SDS011;7476;49.404;11.152;2023-03-17T00:28:31;6.90;;;3.80;;
14768;SDS011;7476;49.404;11.152;2023-03-17T00:31:00;7.37;;;3.80;;
14768;SDS011;7476;49.404;11.152;2023-03-17T00:33:31;5.80;;;4.43;;
14768;SDS011;7476;49.404;11.152;2023-03-17T00:36:01;5.30;;;4.10;;
14768;SDS011;7476;49.404;11.152;2023-03-17T00:38:28;5.93;;;4.00;;
14768;SDS011;7476;49.404;11.152;2023-03-17T00:40:55;4.00;;;3.60;;
14768;SDS011;7476;49.404;11.152;2023-03-17T00:43:22;4.73;;;4.07;;
14768;SDS011;7476;49.404;11.152;2023-03-17T00:45:49;5.47;;;4.10;;
14768;SDS011;7476;49.404;11.152;2023-03-17T00:48:17;5.03;;;3.93;;
14768;SDS011;7476;49.404;11.152;2023-03-17T00:50:46;5.67;;;4.10;;
14768;SDS011;7476;49.404;11.152;2023-03-17T00:53:15;5.20;;;3.87;;
14768;SDS011;7476;49.404;11.152;2023-03-17T00:55:45;5.73;;;4.20;;
14768;SDS011;7476;49.404;11.152;2023-03-17T00:58:13;5.40;;;4.30;;
14768;SDS011;7476;49.404;11.152;2023-03-17T01:00:42;8.10;;;4.27;;
14768;SDS011;7476;49.404;11.152;2023-03-17T01:03:10;6.97;;;4.20;;
14768;SDS011;7476;49.404;11.152;2023-03-17T01:05:39;4.77;;;3.60;;
14768;SDS011;7476;49.404;11.152;2023-03-17T01:08:07;5.93;;;4.10;;
14768;SDS011;7476;49.404;11.152;2023-03-17T01:10:34;6.60;;;4.13;;
14768;SDS011;7476;49.404;11.152;2023-03-17T01:13:01;5.13;;;3.73;;
14768;SDS011;7476;49.404;11.152;2023-03-17T01:15:29;6.30;;;4.20;;
14768;SDS011;7476;49.404;11.152;2023-03-17T01:17:57;4.40;;;3.67;;
14768;SDS011;7476;49.404;11.152;2023-03-17T01:20:24;6.13;;;4.33;;
14768;SDS011;7476;49.404;11.152;2023-03-17T01:22:54;5.80;;;4.17;;
14768;SDS011;7476;49.404;11.152;2023-03-17T01:25:21;6.60;;;4.60;;
14768;SDS011;7476;49.404;11.152;2023-03-17T01:27:48;6.27;;;4.20;;
14768;SDS011;7476;49.404;11.152;2023-03-17T01:30:22;4.63;;;3.60;;
14768;SDS011;7476;49.404;11.152;2023-03-17T01:32:52;6.13;;;3.97;;
14768;SDS011;7476;49.404;11.152;2023-03-17T01:35:20;5.23;;;3.90;;
14768;SDS011;7476;49.404;11.152;2023-03-17T01:37:48;5.77;;;4.07;;
14768;SDS011;7476;49.404;11.152;2023-03-17T01:40:18;5.67;;;4.10;;
14768;SDS011;7476;49.404;11.152;2023-03-17T01:42:51;6.27;;;4.30;;
14768;SDS011;7476;49.404;11.152;2023-03-17T01:48:37;7.30;;;4.80;;
14768;SDS011;7476;49.404;11.152;2023-03-17T01:51:06;6.47;;;4.50;;
14768;SDS011;7476;49.404;11.152;2023-03-17T01:53:36;5.80;;;4.20;;
14768;SDS011;7476;49.404;11.152;2023-03-17T01:56:06;7.00;;;4.40;;
14768;SDS011;7476;49.404;11.152;2023-03-17T01:58:33;5.77;;;4.63;;
14768;SDS011;7476;49.404;11.152;2023-03-17T02:01:00;6.33;;;4.33;;
14768;SDS011;7476;49.404;11.152;2023-03-17T02:03:27;8.70;;;4.73;;
14768;SDS011;7476;49.404;11.152;2023-03-17T02:05:54;6.53;;;4.57;;
14768;SDS011;7476;49.404;11.152;2023-03-17T02:08:22;7.20;;;4.50;;
14768;SDS011;7476;49.404;11.152;2023-03-17T02:10:48;6.17;;;4.53;;
14768;SDS011;7476;49.404;11.152;2023-03-17T02:13:17;8.53;;;4.63;;
14768;SDS011;7476;49.404;11.152;2023-03-17T02:15:46;5.37;;;4.27;;
14768;SDS011;7476;49.404;11.152;2023-03-17T02:18:14;6.57;;;4.47;;
14768;SDS011;7476;49.404;11.152;2023-03-17T02:24:16;7.33;;;4.57;;
14768;SDS011;7476;49.404;11.152;2023-03-17T02:26:47;7.23;;;4.30;;
14768;SDS011;7476;49.404;11.152;2023-03-17T02:29:16;5.20;;;4.20;;
14768;SDS011;7476;49.404;11.152;2023-03-17T02:31:45;7.50;;;4.37;;
14768;SDS011;7476;49.404;11.152;2023-03-17T02:34:11;7.57;;;4.43;;
14768;SDS011;7476;49.404;11.152;2023-03-17T02:36:39;5.70;;;4.00;;
14768;SDS011;7476;49.404;11.152;2023-03-17T02:39:06;7.07;;;4.70;;
14768;SDS011;7476;49.404;11.152;2023-03-17T02:41:34;5.70;;;4.43;;
14768;SDS011;7476;49.404;11.152;2023-03-17T02:44:02;6.07;;;4.20;;
14768;SDS011;7476;49.404;11.152;2023-03-17T02:46:28;5.03;;;3.93;;
14768;SDS011;7476;49.404;11.152;2023-03-17T02:48:55;8.13;;;4.43;;
14768;SDS011;7476;49.404;11.152;2023-03-17T02:51:22;6.03;;;4.50;;
14768;SDS011;7476;49.404;11.152;2023-03-17T02:53:48;5.87;;;4.13;;
14768;SDS011;7476;49.404;11.152;2023-03-17T02:56:15;6.63;;;4.47;;
14768;SDS011;7476;49.404;11.152;2023-03-17T02:58:43;8.53;;;4.80;;
14768;SDS011;7476;49.404;11.152;2023-03-17T03:01:10;6.83;;;4.77;;
14768;SDS011;7476;49.404;11.152;2023-03-17T03:03:37;5.87;;;4.43;;
14768;SDS011;7476;49.404;11.152;2023-03-17T03:06:03;6.63;;;4.80;;
14768;SDS011;7476;49.404;11.152;2023-03-17T03:08:30;6.70;;;4.53;;
14768;SDS011;7476;49.404;11.152;2023-03-17T03:10:58;6.43;;;4.50;;
14768;SDS011;7476;49.404;11.152;2023-03-17T03:13:26;8.03;;;4.60;;
14768;SDS011;7476;49.404;11.152;2023-03-17T03:15:54;6.13;;;3.97;;
14768;SDS011;7476;49.404;11.152;2023-03-17T03:18:21;6.30;;;4.43;;
14768;SDS011;7476;49.404;11.152;2023-03-17T03:20:48;5.90;;;4.40;;
14768;SDS011;7476;49.404;11.152;2023-03-17T03:23:15;5.23;;;4.53;;
14768;SDS011;7476;49.404;11.152;2023-03-17T03:25:42;8.63;;;5.47;;
14768;SDS011;7476;49.404;11.152;2023-03-17T03:28:09;5.80;;;4.70;;
14768;SDS011;7476;49.404;11.152;2023-03-17T03:30:36;7.17;;;4.60;;
14768;SDS011;7476;49.404;11.152;2023-03-17T03:33:04;8.67;;;4.70;;
14768;SDS011;7476;49.404;11.152;2023-03-17T03:35:32;5.67;;;4.53;;
14768;SDS011;7476;49.404;11.152;2023-03-17T03:37:59;6.83;;;4.03;;
14768;SDS011;7476;49.404;11.152;2023-03-17T03:40:26;6.13;;;4.30;;
14768;SDS011;7476;49.404;11.152;2023-03-17T03:42:52;7.73;;;4.40;;
14768;SDS011;7476;49.404;11.152;2023-03-17T03:45:19;5.63;;;3.90;;
14768;SDS011;7476;49.404;11.152;2023-03-17T03:47:46;7.73;;;4.40;;
14768;SDS011;7476;49.404;11.152;2023-03-17T03:50:14;4.70;;;3.80;;
14768;SDS011;7476;49.404;11.152;2023-03-17T03:52:40;6.37;;;3.77;;
14768;SDS011;7476;49.404;11.152;2023-03-17T03:55:08;6.10;;;4.10;;
14768;SDS011;7476;49.404;11.152;2023-03-17T03:57:35;4.83;;;3.67;;
14768;SDS011;7476;49.404;11.152;2023-03-17T04:00:02;5.30;;;4.17;;
14768;SDS011;7476;49.404;11.152;2023-03-17T04:02:31;6.23;;;4.00;;
14768;SDS011;7476;49.404;11.152;2023-03-17T04:04:58;4.67;;;3.93;;
14768;SDS011;7476;49.404;11.152;2023-03-17T04:07:26;6.77;;;4.10;;
14768;SDS011;7476;49.404;11.152;2023-03-17T04:09:53;6.10;;;4.30;;
14768;SDS011;7476;49.404;11.152;2023-03-17T04:12:19;6.67;;;4.23;;
14768;SDS011;7476;49.404;11.152;2023-03-17T04:14:46;7.73;;;4.40;;
14768;SDS011;7476;49.404;11.152;2023-03-17T04:17:13;5.47;;;3.97;;
14768;SDS011;7476;49.404;11.152;2023-03-17T04:19:40;6.77;;;4.30;;
14768;SDS011;7476;49.404;11.152;2023-03-17T04:22:06;5.53;;;4.00;;
14768;SDS011;7476;49.404;11.152;2023-03-17T04:24:37;5.10;;;3.93;;
14768;SDS011;7476;49.404;11.152;2023-03-17T04:27:04;6.33;;;4.60;;
14768;SDS011;7476;49.404;11.152;2023-03-17T04:29:31;5.50;;;4.10;;
14768;SDS011;7476;49.404;11.152;2023-03-17T04:31:58;5.57;;;4.60;;
14768;SDS011;7476;49.404;11.152;2023-03-17T04:34:25;8.20;;;5.20;;
14768;SDS011;7476;49.404;11.152;2023-03-17T04:36:52;7.60;;;4.77;;
14768;SDS011;7476;49.404;11.152;2023-03-17T04:39:19;7.10;;;4.33;;
14768;SDS011;7476;49.404;11.152;2023-03-17T04:41:47;5.90;;;4.60;;
14768;SDS011;7476;49.404;11.152;2023-03-17T04:44:13;5.67;;;4.20;;
14768;SDS011;7476;49.404;11.152;2023-03-17T04:46:40;6.77;;;4.20;;
14768;SDS011;7476;49.404;11.152;2023-03-17T04:49:07;5.27;;;3.87;;
14768;SDS011;7476;49.404;11.152;2023-03-17T04:51:33;6.00;;;4.00;;
14768;SDS011;7476;49.404;11.152;2023-03-17T04:54:01;4.83;;;3.80;;
14768;SDS011;7476;49.404;11.152;2023-03-17T04:56:28;6.17;;;3.73;;
14768;SDS011;7476;49.404;11.152;2023-03-17T04:58:56;5.20;;;4.10;;
14768;SDS011;7476;49.404;11.152;2023-03-17T05:01:23;5.37;;;3.83;;
14768;SDS011;7476;49.404;11.152;2023-03-17T05:03:50;7.77;;;4.73;;
14768;SDS011;7476;49.404;11.152;2023-03-17T05:06:16;6.77;;;5.50;;
14768;SDS011;7476;49.404;11.152;2023-03-17T05:08:43;8.10;;;4.77;;
14768;SDS011;7476;49.404;11.152;2023-03-17T05:11:10;5.63;;;4.30;;
14768;SDS011;7476;49.404;11.152;2023-03-17T05:13:37;7.03;;;4.67;;
14768;SDS011;7476;49.404;11.152;2023-03-17T05:16:06;8.87;;;4.67;;
14768;SDS011;7476;49.404;11.152;2023-03-17T05:18:34;6.30;;;4.30;;
14768;SDS011;7476;49.404;11.152;2023-03-17T05:21:01;6.77;;;3.97;;
14768;SDS011;7476;49.404;11.152;2023-03-17T05:23:28;6.47;;;3.70;;
14768;SDS011;7476;49.404;11.152;2023-03-17T05:25:55;6.13;;;4.27;;
14768;SDS011;7476;49.404;11.152;2023-03-17T05:28:23;7.83;;;4.83;;
14768;SDS011;7476;49.404;11.152;2023-03-17T05:30:50;6.97;;;4.30;;
14768;SDS011;7476;49.404;11.152;2023-03-17T05:33:21;6.20;;;4.23;;
14768;SDS011;7476;49.404;11.152;2023-03-17T05:35:48;5.60;;;4.30;;
14768;SDS011;7476;49.404;11.152;2023-03-17T05:38:15;7.13;;;4.40;;
14768;SDS011;7476;49.404;11.152;2023-03-17T05:40:42;6.63;;;4.57;;
14768;SDS011;7476;49.404;11.152;2023-03-17T05:43:09;7.17;;;4.33;;
14768;SDS011;7476;49.404;11.152;2023-03-17T05:45:36;6.10;;;4.10;;
14768;SDS011;7476;49.404;11.152;2023-03-17T05:48:03;5.43;;;4.10;;
14768;SDS011;7476;49.404;11.152;2023-03-17T05:50:31;7.33;;;3.87;;
14768;SDS011;7476;49.404;11.152;2023-03-17T05:52:58;8.03;;;4.37;;
14768;SDS011;7476;49.404;11.152;2023-03-17T05:55:25;8.03;;;4.60;;
14768;SDS011;7476;49.404;11.152;2023-03-17T05:57:52;8.53;;;4.97;;
14768;SDS011;7476;49.404;11.152;2023-03-17T06:00:19;6.60;;;4.27;;
14768;SDS011;7476;49.404;11.152;2023-03-17T06:02:47;8.07;;;4.90;;
14768;SDS011;7476;49.404;11.152;2023-03-17T06:05:14;7.33;;;4.47;;
14768;SDS011;7476;49.404;11.152;2023-03-17T06:07:42;5.60;;;4.20;;
14768;SDS011;7476;49.404;11.152;2023-03-17T06:10:09;6.07;;;4.67;;
14768;SDS011;7476;49.404;11.152;2023-03-17T06:12:37;7.77;;;5.00;;
14768;SDS011;7476;49.404;11.152;2023-03-17T06:15:05;6.20;;;4.27;;
14768;SDS011;7476;49.404;11.152;2023-03-17T06:17:33;6.40;;;4.33;;
14768;SDS011;7476;49.404;11.152;2023-03-17T06:20:01;7.17;;;4.33;;
14768;SDS011;7476;49.404;11.152;2023-03-17T06:22:29;7.33;;;4.53;;
14768;SDS011;7476;49.404;11.152;2023-03-17T06:24:58;6.80;;;4.20;;
14768;SDS011;7476;49.404;11.152;2023-03-17T06:27:25;5.20;;;4.00;;
14768;SDS011;7476;49.404;11.152;2023-03-17T06:29:51;5.47;;;4.20;;
14768;SDS011;7476;49.404;11.152;2023-03-17T06:32:18;5.40;;;4.27;;
14768;SDS011;7476;49.404;11.152;2023-03-17T06:34:45;6.07;;;4.27;;
14768;SDS011;7476;49.404;11.152;2023-03-17T06:37:12;5.67;;;4.30;;
14768;SDS011;7476;49.404;11.152;2023-03-17T06:39:39;6.57;;;4.40;;
14768;SDS011;7476;49.404;11.152;2023-03-17T06:42:08;7.30;;;4.40;;
14768;SDS011;7476;49.404;11.152;2023-03-17T06:44:35;7.63;;;5.00;;
14768;SDS011;7476;49.404;11.152;2023-03-17T06:47:01;7.37;;;4.70;;
14768;SDS011;7476;49.404;11.152;2023-03-17T06:49:28;6.23;;;4.90;;
14768;SDS011;7476;49.404;11.152;2023-03-17T06:51:55;7.07;;;4.70;;
14768;SDS011;7476;49.404;11.152;2023-03-17T06:54:22;6.47;;;5.17;;
14768;SDS011;7476;49.404;11.152;2023-03-17T06:56:49;7.60;;;5.40;;
14768;SDS011;7476;49.404;11.152;2023-03-17T06:59:18;7.83;;;5.37;;
14768;SDS011;7476;49.404;11.152;2023-03-17T07:01:45;8.37;;;5.17;;
14768;SDS011;7476;49.404;11.152;2023-03-17T07:04:13;8.37;;;5.30;;
14768;SDS011;7476;49.404;11.152;2023-03-17T07:06:40;7.43;;;4.67;;
14768;SDS011;7476;49.404;11.152;2023-03-17T07:09:06;6.10;;;4.83;;
14768;SDS011;7476;49.404;11.152;2023-03-17T07:11:34;8.67;;;6.13;;
14768;SDS011;7476;49.404;11.152;2023-03-17T07:14:00;7.00;;;5.23;;
14768;SDS011;7476;49.404;11.152;2023-03-17T07:16:28;7.43;;;4.93;;
14768;SDS011;7476;49.404;11.152;2023-03-17T07:18:56;5.63;;;4.37;;
14768;SDS011;7476;49.404;11.152;2023-03-17T07:21:23;6.43;;;4.03;;
14768;SDS011;7476;49.404;11.152;2023-03-17T07:23:50;4.23;;;3.73;;
14768;SDS011;7476;49.404;11.152;2023-03-17T07:26:16;5.73;;;3.90;;
14768;SDS011;7476;49.404;11.152;2023-03-17T07:28:43;4.40;;;3.93;;
14768;SDS011;7476;49.404;11.152;2023-03-17T07:31:10;3.97;;;3.57;;
14768;SDS011;7476;49.404;11.152;2023-03-17T07:33:39;4.20;;;3.57;;
14768;SDS011;7476;49.404;11.152;2023-03-17T07:36:07;6.87;;;3.80;;
14768;SDS011;7476;49.404;11.152;2023-03-17T07:38:34;4.63;;;3.47;;
14768;SDS011;7476;49.404;11.152;2023-03-17T07:41:01;4.57;;;3.17;;
14768;SDS011;7476;49.404;11.152;2023-03-17T07:43:28;3.67;;;3.17;;
14768;SDS011;7476;49.404;11.152;2023-03-17T07:45:55;4.77;;;3.47;;
14768;SDS011;7476;49.404;11.152;2023-03-17T07:48:22;4.17;;;3.53;;
14768;SDS011;7476;49.404;11.152;2023-03-17T07:50:50;3.90;;;3.10;;
14768;SDS011;7476;49.404;11.152;2023-03-17T07:53:17;3.53;;;3.03;;
14768;SDS011;7476;49.404;11.152;2023-03-17T07:55:44;4.07;;;3.23;;
14768;SDS011;7476;49.404;11.152;2023-03-17T07:58:10;5.10;;;2.97;;
14768;SDS011;7476;49.404;11.152;2023-03-17T08:00:37;4.13;;;2.90;;
14768;SDS011;7476;49.404;11.152;2023-03-17T08:03:04;4.70;;;2.77;;
14768;SDS011;7476;49.404;11.152;2023-03-17T08:05:31;2.70;;;2.30;;
14768;SDS011;7476;49.404;11.152;2023-03-17T08:07:59;2.53;;;2.23;;
14768;SDS011;7476;49.404;11.152;2023-03-17T08:10:26;2.97;;;2.10;;
14768;SDS011;7476;49.404;11.152;2023-03-17T08:12:52;3.30;;;2.10;;
14768;SDS011;7476;49.404;11.152;2023-03-17T08:15:20;3.47;;;2.07;;
14768;SDS011;7476;49.404;11.152;2023-03-17T08:17:47;2.50;;;2.03;;
14768;SDS011;7476;49.404;11.152;2023-03-17T08:20:13;2.10;;;1.90;;
14768;SDS011;7476;49.404;11.152;2023-03-17T08:22:40;4.07;;;1.90;;
14768;SDS011;7476;49.404;11.152;2023-03-17T08:25:09;2.57;;;1.90;;
14768;SDS011;7476;49.404;11.152;2023-03-17T08:27:36;2.97;;;2.27;;
14768;SDS011;7476;49.404;11.152;2023-03-17T08:30:04;4.90;;;2.07;;
14768;SDS011;7476;49.404;11.152;2023-03-17T08:32:31;2.33;;;1.77;;
14768;SDS011;7476;49.404;11.152;2023-03-17T08:34:58;2.60;;;1.83;;
14768;SDS011;7476;49.404;11.152;2023-03-17T08:37:25;3.47;;;1.80;;
14768;SDS011;7476;49.404;11.152;2023-03-17T08:39:52;3.67;;;2.00;;
14768;SDS011;7476;49.404;11.152;2023-03-17T08:42:20;2.57;;;1.80;;
14768;SDS011;7476;49.404;11.152;2023-03-17T08:44:47;4.67;;;1.80;;
14768;SDS011;7476;49.404;11.152;2023-03-17T08:47:14;1.80;;;1.70;;
14768;SDS011;7476;49.404;11.152;2023-03-17T08:49:42;2.13;;;1.60;;
14768;SDS011;7476;49.404;11.152;2023-03-17T08:52:08;3.07;;;1.80;;
14768;SDS011;7476;49.404;11.152;2023-03-17T08:54:35;3.07;;;1.90;;
14768;SDS011;7476;49.404;11.152;2023-03-17T08:57:02;3.47;;;1.80;;
14768;SDS011;7476;49.404;11.152;2023-03-17T08:59:30;1.77;;;1.67;;
14768;SDS011;7476;49.404;11.152;2023-03-17T09:01:57;2.53;;;2.07;;
14768;SDS011;7476;49.404;11.152;2023-03-17T09:04:24;2.87;;;1.87;;
14768;SDS011;7476;49.404;11.152;2023-03-17T09:06:52;3.30;;;1.90;;
14768;SDS011;7476;49.404;11.152;2023-03-17T09:09:19;2.57;;;1.80;;
14768;SDS011;7476;49.404;11.152;2023-03-17T09:11:45;2.47;;;1.60;;
14768;SDS011;7476;49.404;11.152;2023-03-17T09:14:12;1.93;;;1.80;;
14768;SDS011;7476;49.404;11.152;2023-03-17T09:16:40;1.73;;;1.63;;
14768;SDS011;7476;49.404;11.152;2023-03-17T09:19:07;2.97;;;1.67;;
14768;SDS011;7476;49.404;11.152;2023-03-17T09:21:34;2.03;;;1.77;;
14768;SDS011;7476;49.404;11.152;2023-03-17T09:24:01;2.67;;;1.90;;
14768;SDS011;7476;49.404;11.152;2023-03-17T09:26:27;2.67;;;1.70;;
14768;SDS011;7476;49.404;11.152;2023-03-17T09:28:54;3.80;;;1.77;;
14768;SDS011;7476;49.404;11.152;2023-03-17T09:31:21;2.63;;;1.70;;
14768;SDS011;7476;49.404;11.152;2023-03-17T09:33:49;2.90;;;1.80;;
14768;SDS011;7476;49.404;11.152;2023-03-17T09:36:16;2.40;;;1.50;;
14768;SDS011;7476;49.404;11.152;2023-03-17T09:38:43;2.30;;;1.87;;
14768;SDS011;7476;49.404;11.152;2023-03-17T09:41:21;4.33;;;1.93;;
14768;SDS011;7476;49.404;11.152;2023-03-17T09:43:57;2.87;;;1.60;;
14768;SDS011;7476;49.404;11.152;2023-03-17T09:46:33;3.20;;;1.80;;
14768;SDS011;7476;49.404;11.152;2023-03-17T09:49:13;2.53;;;1.70;;
14768;SDS011;7476;49.404;11.152;2023-03-17T09:51:44;1.70;;;1.50;;
14768;SDS011;7476;49.404;11.152;2023-03-17T09:54:12;2.67;;;1.80;;
14768;SDS011;7476;49.404;11.152;2023-03-17T09:56:46;2.93;;;1.77;;
14768;SDS011;7476;49.404;11.152;2023-03-17T09:59:21;2.27;;;1.50;;
14768;SDS011;7476;49.404;11.152;2023-03-17T10:01:55;1.93;;;1.50;;
14768;SDS011;7476;49.404;11.152;2023-03-17T10:04:23;1.80;;;1.50;;
14768;SDS011;7476;49.404;11.152;2023-03-17T10:06:50;1.93;;;1.73;;
14768;SDS011;7476;49.404;11.152;2023-03-17T10:09:23;3.17;;;1.80;;
14768;SDS011;7476;49.404;11.152;2023-03-17T10:11:56;3.13;;;2.00;;
14768;SDS011;7476;49.404;11.152;2023-03-17T10:14:34;2.23;;;1.53;;
14768;SDS011;7476;49.404;11.152;2023-03-17T10:17:10;2.73;;;1.60;;
14768;SDS011;7476;49.404;11.152;2023-03-17T10:19:43;2.10;;;1.70;;
14768;SDS011;7476;49.404;11.152;2023-03-17T10:22:15;2.20;;;1.60;;
14768;SDS011;7476;49.404;11.152;2023-03-17T10:24:46;2.30;;;1.60;;
14768;SDS011;7476;49.404;11.152;2023-03-17T10:27:17;3.30;;;1.60;;
14768;SDS011;7476;49.404;11.152;2023-03-17T10:29:44;2.13;;;1.60;;
14768;SDS011;7476;49.404;11.152;2023-03-17T10:32:11;2.03;;;1.53;;
14768;SDS011;7476;49.404;11.152;2023-03-17T10:34:39;2.03;;;1.80;;
14768;SDS011;7476;49.404;11.152;2023-03-17T10:37:11;2.80;;;1.50;;
14768;SDS011;7476;49.404;11.152;2023-03-17T10:39:43;1.60;;;1.50;;
14768;SDS011;7476;49.404;11.152;2023-03-17T10:42:12;2.73;;;1.60;;
14768;SDS011;7476;49.404;11.152;2023-03-17T10:44:47;2.33;;;1.67;;
14768;SDS011;7476;49.404;11.152;2023-03-17T10:47:30;1.80;;;1.60;;
14768;SDS011;7476;49.404;11.152;2023-03-17T10:50:00;3.77;;;1.63;;
14768;SDS011;7476;49.404;11.152;2023-03-17T10:52:44;1.63;;;1.40;;
14768;SDS011;7476;49.404;11.152;2023-03-17T10:55:13;1.80;;;1.50;;
14768;SDS011;7476;49.404;11.152;2023-03-17T10:57:48;1.70;;;1.60;;
14768;SDS011;7476;49.404;11.152;2023-03-17T11:00:17;3.03;;;1.60;;
14768;SDS011;7476;49.404;11.152;2023-03-17T11:02:54;3.67;;;1.47;;
14768;SDS011;7476;49.404;11.152;2023-03-17T11:05:23;1.67;;;1.53;;
14768;SDS011;7476;49.404;11.152;2023-03-17T11:07:57;1.70;;;1.60;;
14768;SDS011;7476;49.404;11.152;2023-03-17T11:10:35;1.80;;;1.43;;
14768;SDS011;7476;49.404;11.152;2023-03-17T11:13:03;3.00;;;1.60;;
14768;SDS011;7476;49.404;11.152;2023-03-17T11:15:31;3.20;;;1.60;;
14768;SDS011;7476;49.404;11.152;2023-03-17T11:18:00;3.47;;;1.60;;
14768;SDS011;7476;49.404;11.152;2023-03-17T11:20:31;2.10;;;1.67;;
14768;SDS011;7476;49.404;11.152;2023-03-17T11:23:07;2.63;;;1.50;;
14768;SDS011;7476;49.404;11.152;2023-03-17T11:25:43;1.70;;;1.50;;
14768;SDS011;7476;49.404;11.152;2023-03-17T11:28:16;2.20;;;1.60;;
14768;SDS011;7476;49.404;11.152;2023-03-17T11:30:46;1.90;;;1.40;;
14768;SDS011;7476;49.404;11.152;2023-03-17T11:33:27;3.17;;;1.40;;
14768;SDS011;7476;49.404;11.152;2023-03-17T11:36:00;1.80;;;1.53;;
14768;SDS011;7476;49.404;11.152;2023-03-17T11:38:41;3.27;;;1.50;;
14768;SDS011;7476;49.404;11.152;2023-03-17T11:44:17;2.20;;;1.40;;
14768;SDS011;7476;49.404;11.152;2023-03-17T11:47:01;1.63;;;1.47;;
14768;SDS011;7476;49.404;11.152;2023-03-17T11:49:34;1.80;;;1.40;;
14768;SDS011;7476;49.404;11.152;2023-03-17T11:52:03;2.67;;;1.63;;
14768;SDS011;7476;49.404;11.152;2023-03-17T11:54:41;2.70;;;1.43;;
14768;SDS011;7476;49.404;11.152;2023-03-17T11:57:16;3.40;;;1.70;;
14768;SDS011;7476;49.404;11.152;2023-03-17T11:59:46;2.23;;;1.60;;
14768;SDS011;7476;49.404;11.152;2023-03-17T12:02:19;2.23;;;1.53;;
14768;SDS011;7476;49.404;11.152;2023-03-17T12:04:52;3.03;;;1.60;;
14768;SDS011;7476;49.404;11.152;2023-03-17T12:07:23;1.50;;;1.30;;
14768;SDS011;7476;49.404;11.152;2023-03-17T12:09:57;2.43;;;1.40;;
14768;SDS011;7476;49.404;11.152;2023-03-17T12:12:33;2.13;;;1.30;;
14768;SDS011;7476;49.404;11.152;2023-03-17T12:15:04;2.20;;;1.50;;
14768;SDS011;7476;49.404;11.152;2023-03-17T12:17:41;3.40;;;1.80;;
14768;SDS011;7476;49.404;11.152;2023-03-17T12:20:15;1.87;;;1.30;;
14768;SDS011;7476;49.404;11.152;2023-03-17T12:22:46;3.27;;;1.20;;
14768;SDS011;7476;49.404;11.152;2023-03-17T12:25:22;2.03;;;1.13;;
14768;SDS011;7476;49.404;11.152;2023-03-17T12:27:54;2.80;;;1.20;;
14768;SDS011;7476;49.404;11.152;2023-03-17T12:30:26;1.50;;;1.30;;
14768;SDS011;7476;49.404;11.152;2023-03-17T12:33:03;2.97;;;1.30;;
14768;SDS011;7476;49.404;11.152;2023-03-17T12:35:36;1.73;;;1.30;;
14768;SDS011;7476;49.404;11.152;2023-03-17T12:38:05;2.07;;;1.50;;
14768;SDS011;7476;49.404;11.152;2023-03-17T12:40:41;1.47;;;1.30;;
14768;SDS011;7476;49.404;11.152;2023-03-17T12:43:34;1.87;;;1.20;;
14768;SDS011;7476;49.404;11.152;2023-03-17T12:46:08;1.73;;;1.20;;
14768;SDS011;7476;49.404;11.152;2023-03-17T12:48:51;3.60;;;1.43;;
14768;SDS011;7476;49.404;11.152;2023-03-17T12:51:45;1.17;;;1.03;;
14768;SDS011;7476;49.404;11.152;2023-03-17T12:54:23;2.40;;;1.20;;
14768;SDS011;7476;49.404;11.152;2023-03-17T12:56:58;2.93;;;1.30;;
14768;SDS011;7476;49.404;11.152;2023-03-17T12:59:27;2.73;;;1.10;;
14768;SDS011;7476;49.404;11.152;2023-03-17T13:01:55;1.47;;;1.20;;
14768;SDS011;7476;49.404;11.152;2023-03-17T13:04:24;1.63;;;1.37;;
14768;SDS011;7476;49.404;11.152;2023-03-17T13:06:53;1.73;;;1.30;;
14768;SDS011;7476;49.404;11.152;2023-03-17T13:09:28;2.33;;;1.20;;
14768;SDS011;7476;49.404;11.152;2023-03-17T13:15:21;2.20;;;1.30;;
14768;SDS011;7476;49.404;11.152;2023-03-17T13:18:09;1.30;;;1.20;;
14768;SDS011;7476;49.404;11.152;2023-03-17T13:20:50;1.10;;;1.00;;
14768;SDS011;7476;49.404;11.152;2023-03-17T13:23:36;1.50;;;1.40;;
14768;SDS011;7476;49.404;11.152;2023-03-17T13:26:06;2.50;;;1.40;;
14768;SDS011;7476;49.404;11.152;2023-03-17T13:28:40;2.20;;;1.23;;
14768;SDS011;7476;49.404;11.152;2023-03-17T13:31:13;1.63;;;1.13;;
14768;SDS011;7476;49.404;11.152;2023-03-17T13:34:01;1.27;;;1.17;;
14768;SDS011;7476;49.404;11.152;2023-03-17T13:36:35;1.43;;;1.20;;
14768;SDS011;7476;49.404;11.152;2023-03-17T13:39:28;1.77;;;1.20;;
14768;SDS011;7476;49.404;11.152;2023-03-17T13:42:16;2.37;;;1.30;;
14768;SDS011;7476;49.404;11.152;2023-03-17T13:44:53;1.10;;;1.00;;
14768;SDS011;7476;49.404;11.152;2023-03-17T13:47:40;2.63;;;1.57;;
14768;SDS011;7476;49.404;11.152;2023-03-17T13:50:08;1.73;;;1.30;;
14768;SDS011;7476;49.404;11.152;2023-03-17T13:52:40;1.87;;;1.00;;
14768;SDS011;7476;49.404;11.152;2023-03-17T14:00:43;1.40;;;1.20;;
14768;SDS011;7476;49.404;11.152;2023-03-17T14:03:14;1.70;;;1.33;;
14768;SDS011;7476;49.404;11.152;2023-03-17T14:05:45;1.23;;;1.13;;
14768;SDS011;7476;49.404;11.152;2023-03-17T14:08:14;1.93;;;1.20;;
14768;SDS011;7476;49.404;11.152;2023-03-17T14:10:50;2.50;;;1.10;;
14768;SDS011;7476;49.404;11.152;2023-03-17T14:13:19;1.73;;;1.30;;
14768;SDS011;7476;49.404;11.152;2023-03-17T14:15:49;1.33;;;1.23;;
14768;SDS011;7476;49.404;11.152;2023-03-17T14:18:28;1.40;;;1.23;;
14768;SDS011;7476;49.404;11.152;2023-03-17T14:20:58;1.30;;;1.20;;
14768;SDS011;7476;49.404;11.152;2023-03-17T14:23:29;1.80;;;1.30;;
14768;SDS011;7476;49.404;11.152;2023-03-17T14:25:56;2.17;;;1.40;;
14768;SDS011;7476;49.404;11.152;2023-03-17T14:28:24;2.43;;;1.30;;
14768;SDS011;7476;49.404;11.152;2023-03-17T14:30:54;1.57;;;1.10;;
14768;SDS011;7476;49.404;11.152;2023-03-17T14:33:24;1.77;;;1.20;;
14768;SDS011;7476;49.404;11.152;2023-03-17T14:35:55;3.33;;;1.20;;
14768;SDS011;7476;49.404;11.152;2023-03-17T14:38:24;1.10;;;1.00;;
14768;SDS011;7476;49.404;11.152;2023-03-17T14:40:58;1.43;;;1.27;;
14768;SDS011;7476;49.404;11.152;2023-03-17T14:43:26;1.30;;;1.20;;
14768;SDS011;7476;49.404;11.152;2023-03-17T14:45:57;1.93;;;1.30;;
14768;SDS011;7476;49.404;11.152;2023-03-17T14:48:26;2.03;;;1.00;;
14768;SDS011;7476;49.404;11.152;2023-03-17T14:50:58;2.30;;;1.20;;
14768;SDS011;7476;49.404;11.152;2023-03-17T14:53:30;3.13;;;1.30;;
14768;SDS011;7476;49.404;11.152;2023-03-17T14:55:57;1.20;;;1.10;;
14768;SDS011;7476;49.404;11.152;2023-03-17T14:58:26;1.93;;;1.20;;
14768;SDS011;7476;49.404;11.152;2023-03-17T15:01:00;2.10;;;1.20;;
14768;SDS011;7476;49.404;11.152;2023-03-17T15:03:29;1.60;;;1.30;;
14768;SDS011;7476;49.404;11.152;2023-03-17T15:06:06;1.73;;;1.30;;
14768;SDS011;7476;49.404;11.152;2023-03-17T15:08:47;1.73;;;1.10;;
14768;SDS011;7476;49.404;11.152;2023-03-17T15:11:15;1.80;;;1.40;;
14768;SDS011;7476;49.404;11.152;2023-03-17T15:13:45;1.67;;;1.30;;
14768;SDS011;7476;49.404;11.152;2023-03-17T15:16:15;1.50;;;1.40;;
14768;SDS011;7476;49.404;11.152;2023-03-17T15:18:45;2.13;;;1.20;;
14768;SDS011;7476;49.404;11.152;2023-03-17T15:21:27;1.70;;;1.30;;